sensor_id;sensor_type;location;lat;lon;timestamp;P1;durP1;ratioP1;P2;durP2;ratioP2
19796;SDS011;10058;57.654;12.044;2023-09-08T00:00:37;0.10;;;0.10;;
19796;SDS011;10058;57.654;12.044;2023-09-08T00:03:02;0.10;;;0.10;;
19796;SDS011;10058;57.654;12.044;2023-09-08T00:05:28;0.10;;;0.10;;
19796;SDS011;10058;57.654;12.044;2023-09-08T00:07:53;0.10;;;0.10;;
19796;SDS011;10058;57.654;12.044;2023-09-08T00:10:18;0.00;;;0.00;;
19796;SDS011;10058;57.654;12.044;2023-09-08T00:12:44;0.00;;;0.00;;
19796;SDS011;10058;57.654;12.044;2023-09-08T00:15:09;0.10;;;0.10;;
19796;SDS011;10058;57.654;12.044;2023-09-08T00:17:35;0.03;;;0.03;;
19796;SDS011;10058;57.654;12.044;2023-09-08T00:20:01;0.10;;;0.10;;
19796;SDS011;10058;57.654;12.044;2023-09-08T00:22:30;0.10;;;0.10;;
19796;SDS011;10058;57.654;12.044;2023-09-08T00:24:56;0.20;;;0.20;;
19796;SDS011;10058;57.654;12.044;2023-09-08T00:27:21;0.10;;;0.10;;
19796;SDS011;10058;57.654;12.044;2023-09-08T00:29:46;0.10;;;0.10;;
19796;SDS011;10058;57.654;12.044;2023-09-08T00:32:11;0.10;;;0.10;;
19796;SDS011;10058;57.654;12.044;2023-09-08T00:34:37;0.03;;;0.03;;
19796;SDS011;10058;57.654;12.044;2023-09-08T00:37:02;0.00;;;0.00;;
19796;SDS011;10058;57.654;12.044;2023-09-08T00:39:32;0.10;;;0.10;;
19796;SDS011;10058;57.654;12.044;2023-09-08T00:41:59;0.10;;;0.10;;
19796;SDS011;10058;57.654;12.044;2023-09-08T00:44:24;0.10;;;0.10;;
19796;SDS011;10058;57.654;12.044;2023-09-08T00:46:49;0.10;;;0.10;;
19796;SDS011;10058;57.654;12.044;2023-09-08T00:49:15;0.10;;;0.10;;
19796;SDS011;10058;57.654;12.044;2023-09-08T00:51:40;0.10;;;0.10;;
19796;SDS011;10058;57.654;12.044;2023-09-08T00:54:06;0.10;;;0.10;;
19796;SDS011;10058;57.654;12.044;2023-09-08T00:56:31;0.10;;;0.10;;
19796;SDS011;10058;57.654;12.044;2023-09-08T00:58:57;0.10;;;0.10;;
19796;SDS011;10058;57.654;12.044;2023-09-08T01:01:23;0.10;;;0.10;;
19796;SDS011;10058;57.654;12.044;2023-09-08T01:03:48;0.00;;;0.00;;
19796;SDS011;10058;57.654;12.044;2023-09-08T01:06:13;0.10;;;0.10;;
19796;SDS011;10058;57.654;12.044;2023-09-08T01:08:39;0.10;;;0.10;;
19796;SDS011;10058;57.654;12.044;2023-09-08T01:11:04;0.10;;;0.10;;
19796;SDS011;10058;57.654;12.044;2023-09-08T01:13:30;0.10;;;0.10;;
19796;SDS011;10058;57.654;12.044;2023-09-08T01:15:55;0.20;;;0.20;;
19796;SDS011;10058;57.654;12.044;2023-09-08T01:18:20;0.10;;;0.10;;
19796;SDS011;10058;57.654;12.044;2023-09-08T01:26:07;0.20;;;0.20;;
19796;SDS011;10058;57.654;12.044;2023-09-08T01:28:35;0.10;;;0.10;;
19796;SDS011;10058;57.654;12.044;2023-09-08T01:31:01;0.10;;;0.10;;
19796;SDS011;10058;57.654;12.044;2023-09-08T01:33:26;0.10;;;0.10;;
19796;SDS011;10058;57.654;12.044;2023-09-08T01:35:52;0.05;;;0.05;;
19796;SDS011;10058;57.654;12.044;2023-09-08T01:38:18;0.07;;;0.07;;
19796;SDS011;10058;57.654;12.044;2023-09-08T01:40:43;0.10;;;0.10;;
19796;SDS011;10058;57.654;12.044;2023-09-08T01:43:09;0.10;;;0.10;;
19796;SDS011;10058;57.654;12.044;2023-09-08T01:45:34;0.10;;;0.10;;
19796;SDS011;10058;57.654;12.044;2023-09-08T01:47:59;0.17;;;0.17;;
19796;SDS011;10058;57.654;12.044;2023-09-08T01:50:24;0.10;;;0.10;;
19796;SDS011;10058;57.654;12.044;2023-09-08T01:52:50;0.10;;;0.10;;
19796;SDS011;10058;57.654;12.044;2023-09-08T01:55:16;0.10;;;0.10;;
19796;SDS011;10058;57.654;12.044;2023-09-08T01:57:42;0.10;;;0.10;;
19796;SDS011;10058;57.654;12.044;2023-09-08T02:00:07;0.10;;;0.10;;
19796;SDS011;10058;57.654;12.044;2023-09-08T02:02:34;0.10;;;0.10;;
19796;SDS011;10058;57.654;12.044;2023-09-08T02:04:59;0.10;;;0.10;;
19796;SDS011;10058;57.654;12.044;2023-09-08T02:07:24;0.07;;;0.07;;
19796;SDS011;10058;57.654;12.044;2023-09-08T02:09:49;0.10;;;0.10;;
19796;SDS011;10058;57.654;12.044;2023-09-08T02:12:15;0.10;;;0.10;;
19796;SDS011;10058;57.654;12.044;2023-09-08T02:14:40;0.10;;;0.10;;
19796;SDS011;10058;57.654;12.044;2023-09-08T02:17:05;0.17;;;0.17;;
19796;SDS011;10058;57.654;12.044;2023-09-08T02:19:31;0.10;;;0.10;;
19796;SDS011;10058;57.654;12.044;2023-09-08T02:21:56;0.10;;;0.10;;
19796;SDS011;10058;57.654;12.044;2023-09-08T02:24:22;0.10;;;0.10;;
19796;SDS011;10058;57.654;12.044;2023-09-08T02:26:47;0.00;;;0.00;;
19796;SDS011;10058;57.654;12.044;2023-09-08T02:29:12;0.10;;;0.10;;
19796;SDS011;10058;57.654;12.044;2023-09-08T02:31:38;0.10;;;0.10;;
19796;SDS011;10058;57.654;12.044;2023-09-08T02:34:03;0.10;;;0.10;;
19796;SDS011;10058;57.654;12.044;2023-09-08T02:36:29;0.17;;;0.17;;
19796;SDS011;10058;57.654;12.044;2023-09-08T02:38:55;0.10;;;0.10;;
19796;SDS011;10058;57.654;12.044;2023-09-08T02:41:21;0.10;;;0.10;;
19796;SDS011;10058;57.654;12.044;2023-09-08T02:43:47;0.10;;;0.10;;
19796;SDS011;10058;57.654;12.044;2023-09-08T02:46:12;0.10;;;0.10;;
19796;SDS011;10058;57.654;12.044;2023-09-08T02:48:38;0.10;;;0.10;;
19796;SDS011;10058;57.654;12.044;2023-09-08T02:51:03;0.20;;;0.20;;
19796;SDS011;10058;57.654;12.044;2023-09-08T02:53:29;0.10;;;0.10;;
19796;SDS011;10058;57.654;12.044;2023-09-08T02:55:55;0.10;;;0.10;;
19796;SDS011;10058;57.654;12.044;2023-09-08T02:58:20;0.05;;;0.05;;
19796;SDS011;10058;57.654;12.044;2023-09-08T03:00:46;0.00;;;0.00;;
19796;SDS011;10058;57.654;12.044;2023-09-08T03:03:11;0.00;;;0.00;;
19796;SDS011;10058;57.654;12.044;2023-09-08T03:05:36;0.10;;;0.10;;
19796;SDS011;10058;57.654;12.044;2023-09-08T03:08:02;0.10;;;0.10;;
19796;SDS011;10058;57.654;12.044;2023-09-08T03:10:28;0.10;;;0.10;;
19796;SDS011;10058;57.654;12.044;2023-09-08T03:12:53;0.10;;;0.10;;
19796;SDS011;10058;57.654;12.044;2023-09-08T03:15:19;0.10;;;0.10;;
19796;SDS011;10058;57.654;12.044;2023-09-08T03:17:44;0.10;;;0.10;;
19796;SDS011;10058;57.654;12.044;2023-09-08T03:20:10;0.10;;;0.10;;
19796;SDS011;10058;57.654;12.044;2023-09-08T03:22:35;0.10;;;0.10;;
19796;SDS011;10058;57.654;12.044;2023-09-08T03:25:01;0.10;;;0.10;;
19796;SDS011;10058;57.654;12.044;2023-09-08T03:27:26;0.10;;;0.10;;
19796;SDS011;10058;57.654;12.044;2023-09-08T03:29:51;0.10;;;0.10;;
19796;SDS011;10058;57.654;12.044;2023-09-08T03:32:16;0.10;;;0.10;;
19796;SDS011;10058;57.654;12.044;2023-09-08T03:34:42;0.10;;;0.10;;
19796;SDS011;10058;57.654;12.044;2023-09-08T03:37:07;0.10;;;0.10;;
19796;SDS011;10058;57.654;12.044;2023-09-08T03:39:32;0.10;;;0.10;;
19796;SDS011;10058;57.654;12.044;2023-09-08T03:41:57;0.10;;;0.10;;
19796;SDS011;10058;57.654;12.044;2023-09-08T03:44:23;0.10;;;0.10;;
19796;SDS011;10058;57.654;12.044;2023-09-08T03:46:48;0.10;;;0.10;;
19796;SDS011;10058;57.654;12.044;2023-09-08T03:49:13;0.10;;;0.10;;
19796;SDS011;10058;57.654;12.044;2023-09-08T03:51:39;0.03;;;0.03;;
19796;SDS011;10058;57.654;12.044;2023-09-08T03:54:04;0.00;;;0.00;;
19796;SDS011;10058;57.654;12.044;2023-09-08T03:56:30;0.00;;;0.00;;
19796;SDS011;10058;57.654;12.044;2023-09-08T03:58:56;0.00;;;0.00;;
19796;SDS011;10058;57.654;12.044;2023-09-08T04:01:21;0.10;;;0.10;;
19796;SDS011;10058;57.654;12.044;2023-09-08T04:03:46;0.00;;;0.00;;
19796;SDS011;10058;57.654;12.044;2023-09-08T04:06:12;0.10;;;0.10;;
19796;SDS011;10058;57.654;12.044;2023-09-08T04:08:37;0.03;;;0.03;;
19796;SDS011;10058;57.654;12.044;2023-09-08T04:11:02;0.03;;;0.03;;
19796;SDS011;10058;57.654;12.044;2023-09-08T04:13:27;0.00;;;0.00;;
19796;SDS011;10058;57.654;12.044;2023-09-08T04:15:53;0.00;;;0.00;;
19796;SDS011;10058;57.654;12.044;2023-09-08T04:18:18;0.00;;;0.00;;
19796;SDS011;10058;57.654;12.044;2023-09-08T04:20:43;0.10;;;0.10;;
19796;SDS011;10058;57.654;12.044;2023-09-08T04:23:08;0.10;;;0.10;;
19796;SDS011;10058;57.654;12.044;2023-09-08T04:25:34;0.10;;;0.10;;
19796;SDS011;10058;57.654;12.044;2023-09-08T04:27:59;0.10;;;0.10;;
19796;SDS011;10058;57.654;12.044;2023-09-08T04:30:24;0.00;;;0.00;;
19796;SDS011;10058;57.654;12.044;2023-09-08T04:32:50;0.10;;;0.10;;
19796;SDS011;10058;57.654;12.044;2023-09-08T04:35:15;0.10;;;0.10;;
19796;SDS011;10058;57.654;12.044;2023-09-08T04:37:40;0.00;;;0.00;;
19796;SDS011;10058;57.654;12.044;2023-09-08T04:40:06;0.10;;;0.10;;
19796;SDS011;10058;57.654;12.044;2023-09-08T04:42:34;0.10;;;0.10;;
19796;SDS011;10058;57.654;12.044;2023-09-08T04:45:00;0.10;;;0.10;;
19796;SDS011;10058;57.654;12.044;2023-09-08T04:47:25;0.10;;;0.10;;
19796;SDS011;10058;57.654;12.044;2023-09-08T04:49:50;0.10;;;0.10;;
19796;SDS011;10058;57.654;12.044;2023-09-08T04:52:16;0.10;;;0.10;;
19796;SDS011;10058;57.654;12.044;2023-09-08T04:54:41;0.10;;;0.10;;
19796;SDS011;10058;57.654;12.044;2023-09-08T04:57:06;0.10;;;0.10;;
19796;SDS011;10058;57.654;12.044;2023-09-08T04:59:32;0.10;;;0.10;;
19796;SDS011;10058;57.654;12.044;2023-09-08T05:01:57;0.10;;;0.10;;
19796;SDS011;10058;57.654;12.044;2023-09-08T05:04:23;0.10;;;0.10;;
19796;SDS011;10058;57.654;12.044;2023-09-08T05:06:48;0.10;;;0.10;;
19796;SDS011;10058;57.654;12.044;2023-09-08T05:09:13;0.10;;;0.10;;
19796;SDS011;10058;57.654;12.044;2023-09-08T05:11:39;0.10;;;0.10;;
19796;SDS011;10058;57.654;12.044;2023-09-08T05:14:05;0.10;;;0.10;;
19796;SDS011;10058;57.654;12.044;2023-09-08T05:16:30;0.10;;;0.10;;
19796;SDS011;10058;57.654;12.044;2023-09-08T05:19:10;0.10;;;0.10;;
19796;SDS011;10058;57.654;12.044;2023-09-08T05:21:36;0.10;;;0.10;;
19796;SDS011;10058;57.654;12.044;2023-09-08T05:24:02;0.10;;;0.10;;
19796;SDS011;10058;57.654;12.044;2023-09-08T05:26:27;0.10;;;0.10;;
19796;SDS011;10058;57.654;12.044;2023-09-08T05:28:53;0.10;;;0.10;;
19796;SDS011;10058;57.654;12.044;2023-09-08T05:31:18;0.10;;;0.10;;
19796;SDS011;10058;57.654;12.044;2023-09-08T05:33:43;0.10;;;0.10;;
19796;SDS011;10058;57.654;12.044;2023-09-08T05:36:08;0.10;;;0.10;;
19796;SDS011;10058;57.654;12.044;2023-09-08T05:38:34;0.10;;;0.10;;
19796;SDS011;10058;57.654;12.044;2023-09-08T05:40:59;0.10;;;0.10;;
19796;SDS011;10058;57.654;12.044;2023-09-08T05:43:25;0.10;;;0.10;;
19796;SDS011;10058;57.654;12.044;2023-09-08T05:45:50;0.10;;;0.10;;
19796;SDS011;10058;57.654;12.044;2023-09-08T05:48:16;0.10;;;0.10;;
19796;SDS011;10058;57.654;12.044;2023-09-08T05:50:41;0.10;;;0.10;;
19796;SDS011;10058;57.654;12.044;2023-09-08T05:53:07;0.10;;;0.10;;
19796;SDS011;10058;57.654;12.044;2023-09-08T05:55:32;0.10;;;0.10;;
19796;SDS011;10058;57.654;12.044;2023-09-08T05:57:57;0.10;;;0.10;;
19796;SDS011;10058;57.654;12.044;2023-09-08T06:00:22;0.10;;;0.10;;
19796;SDS011;10058;57.654;12.044;2023-09-08T06:02:48;0.10;;;0.10;;
19796;SDS011;10058;57.654;12.044;2023-09-08T06:05:13;0.10;;;0.10;;
19796;SDS011;10058;57.654;12.044;2023-09-08T06:07:38;0.00;;;0.00;;
19796;SDS011;10058;57.654;12.044;2023-09-08T06:10:04;0.10;;;0.10;;
19796;SDS011;10058;57.654;12.044;2023-09-08T06:12:30;0.08;;;0.08;;
19796;SDS011;10058;57.654;12.044;2023-09-08T06:14:55;0.10;;;0.10;;
19796;SDS011;10058;57.654;12.044;2023-09-08T06:17:20;0.10;;;0.10;;
19796;SDS011;10058;57.654;12.044;2023-09-08T06:19:45;0.10;;;0.10;;
19796;SDS011;10058;57.654;12.044;2023-09-08T06:22:11;0.10;;;0.10;;
19796;SDS011;10058;57.654;12.044;2023-09-08T06:24:36;0.10;;;0.10;;
19796;SDS011;10058;57.654;12.044;2023-09-08T06:27:01;0.10;;;0.10;;
19796;SDS011;10058;57.654;12.044;2023-09-08T06:29:27;0.10;;;0.10;;
19796;SDS011;10058;57.654;12.044;2023-09-08T06:31:52;0.10;;;0.10;;
19796;SDS011;10058;57.654;12.044;2023-09-08T06:34:18;0.10;;;0.10;;
19796;SDS011;10058;57.654;12.044;2023-09-08T06:36:46;0.10;;;0.10;;
19796;SDS011;10058;57.654;12.044;2023-09-08T06:39:11;0.10;;;0.10;;
19796;SDS011;10058;57.654;12.044;2023-09-08T06:41:37;0.10;;;0.10;;
19796;SDS011;10058;57.654;12.044;2023-09-08T06:44:03;0.10;;;0.10;;
19796;SDS011;10058;57.654;12.044;2023-09-08T06:46:28;0.10;;;0.10;;
19796;SDS011;10058;57.654;12.044;2023-09-08T06:48:53;0.10;;;0.10;;
19796;SDS011;10058;57.654;12.044;2023-09-08T06:51:19;0.07;;;0.07;;
19796;SDS011;10058;57.654;12.044;2023-09-08T06:53:44;0.07;;;0.07;;
19796;SDS011;10058;57.654;12.044;2023-09-08T06:56:10;0.00;;;0.00;;
19796;SDS011;10058;57.654;12.044;2023-09-08T06:58:35;0.10;;;0.10;;
19796;SDS011;10058;57.654;12.044;2023-09-08T07:01:00;0.10;;;0.10;;
19796;SDS011;10058;57.654;12.044;2023-09-08T07:03:25;0.10;;;0.10;;
19796;SDS011;10058;57.654;12.044;2023-09-08T07:05:51;0.10;;;0.10;;
19796;SDS011;10058;57.654;12.044;2023-09-08T07:08:17;0.10;;;0.10;;
19796;SDS011;10058;57.654;12.044;2023-09-08T07:10:43;0.10;;;0.10;;
19796;SDS011;10058;57.654;12.044;2023-09-08T07:13:08;0.10;;;0.10;;
19796;SDS011;10058;57.654;12.044;2023-09-08T07:15:34;0.00;;;0.00;;
19796;SDS011;10058;57.654;12.044;2023-09-08T07:17:59;0.10;;;0.10;;
19796;SDS011;10058;57.654;12.044;2023-09-08T07:20:24;0.10;;;0.10;;
19796;SDS011;10058;57.654;12.044;2023-09-08T07:22:49;0.10;;;0.10;;
19796;SDS011;10058;57.654;12.044;2023-09-08T07:25:15;0.20;;;0.20;;
19796;SDS011;10058;57.654;12.044;2023-09-08T07:27:40;0.10;;;0.10;;
19796;SDS011;10058;57.654;12.044;2023-09-08T07:30:05;0.10;;;0.10;;
19796;SDS011;10058;57.654;12.044;2023-09-08T07:32:31;0.10;;;0.10;;
19796;SDS011;10058;57.654;12.044;2023-09-08T07:34:56;0.10;;;0.10;;
19796;SDS011;10058;57.654;12.044;2023-09-08T07:37:22;0.10;;;0.10;;
19796;SDS011;10058;57.654;12.044;2023-09-08T07:39:47;0.10;;;0.10;;
19796;SDS011;10058;57.654;12.044;2023-09-08T07:42:13;0.10;;;0.10;;
19796;SDS011;10058;57.654;12.044;2023-09-08T07:44:38;0.10;;;0.10;;
19796;SDS011;10058;57.654;12.044;2023-09-08T07:47:04;0.10;;;0.10;;
19796;SDS011;10058;57.654;12.044;2023-09-08T07:49:29;0.00;;;0.00;;
19796;SDS011;10058;57.654;12.044;2023-09-08T07:51:54;0.10;;;0.10;;
19796;SDS011;10058;57.654;12.044;2023-09-08T07:54:20;0.10;;;0.10;;
19796;SDS011;10058;57.654;12.044;2023-09-08T07:56:45;0.10;;;0.10;;
19796;SDS011;10058;57.654;12.044;2023-09-08T07:59:11;0.10;;;0.10;;
19796;SDS011;10058;57.654;12.044;2023-09-08T08:01:36;0.10;;;0.10;;
19796;SDS011;10058;57.654;12.044;2023-09-08T08:04:01;0.10;;;0.10;;
19796;SDS011;10058;57.654;12.044;2023-09-08T08:06:28;0.10;;;0.10;;
19796;SDS011;10058;57.654;12.044;2023-09-08T08:08:53;0.00;;;0.00;;
19796;SDS011;10058;57.654;12.044;2023-09-08T08:11:19;0.10;;;0.10;;
19796;SDS011;10058;57.654;12.044;2023-09-08T08:13:45;0.10;;;0.10;;
19796;SDS011;10058;57.654;12.044;2023-09-08T08:16:11;0.00;;;0.00;;
19796;SDS011;10058;57.654;12.044;2023-09-08T08:18:36;0.10;;;0.10;;
19796;SDS011;10058;57.654;12.044;2023-09-08T08:21:01;0.10;;;0.10;;
19796;SDS011;10058;57.654;12.044;2023-09-08T08:23:28;0.00;;;0.00;;
19796;SDS011;10058;57.654;12.044;2023-09-08T08:25:54;0.10;;;0.10;;
19796;SDS011;10058;57.654;12.044;2023-09-08T08:28:19;0.10;;;0.10;;
19796;SDS011;10058;57.654;12.044;2023-09-08T08:30:45;0.10;;;0.10;;
19796;SDS011;10058;57.654;12.044;2023-09-08T08:33:12;0.10;;;0.10;;
19796;SDS011;10058;57.654;12.044;2023-09-08T08:35:38;0.00;;;0.00;;
19796;SDS011;10058;57.654;12.044;2023-09-08T08:38:04;0.10;;;0.10;;
19796;SDS011;10058;57.654;12.044;2023-09-08T08:40:29;0.10;;;0.10;;
19796;SDS011;10058;57.654;12.044;2023-09-08T08:42:56;0.10;;;0.10;;
19796;SDS011;10058;57.654;12.044;2023-09-08T08:45:25;0.03;;;0.03;;
19796;SDS011;10058;57.654;12.044;2023-09-08T08:47:52;0.10;;;0.10;;
19796;SDS011;10058;57.654;12.044;2023-09-08T08:50:18;0.00;;;0.00;;
19796;SDS011;10058;57.654;12.044;2023-09-08T08:52:44;0.10;;;0.10;;
19796;SDS011;10058;57.654;12.044;2023-09-08T08:55:10;0.00;;;0.00;;
19796;SDS011;10058;57.654;12.044;2023-09-08T08:57:36;0.10;;;0.10;;
19796;SDS011;10058;57.654;12.044;2023-09-08T09:00:03;0.10;;;0.10;;
19796;SDS011;10058;57.654;12.044;2023-09-08T09:02:38;0.10;;;0.10;;
19796;SDS011;10058;57.654;12.044;2023-09-08T09:05:06;0.10;;;0.10;;
19796;SDS011;10058;57.654;12.044;2023-09-08T09:07:33;0.10;;;0.10;;
19796;SDS011;10058;57.654;12.044;2023-09-08T09:09:59;0.10;;;0.10;;
19796;SDS011;10058;57.654;12.044;2023-09-08T09:12:25;0.10;;;0.10;;
19796;SDS011;10058;57.654;12.044;2023-09-08T09:14:53;0.10;;;0.10;;
19796;SDS011;10058;57.654;12.044;2023-09-08T09:17:19;0.10;;;0.10;;
19796;SDS011;10058;57.654;12.044;2023-09-08T09:19:44;0.10;;;0.10;;
19796;SDS011;10058;57.654;12.044;2023-09-08T09:22:09;0.10;;;0.10;;
19796;SDS011;10058;57.654;12.044;2023-09-08T09:24:36;0.10;;;0.10;;
19796;SDS011;10058;57.654;12.044;2023-09-08T09:27:04;0.00;;;0.00;;
19796;SDS011;10058;57.654;12.044;2023-09-08T09:29:30;0.10;;;0.10;;
19796;SDS011;10058;57.654;12.044;2023-09-08T09:34:28;0.10;;;0.10;;
19796;SDS011;10058;57.654;12.044;2023-09-08T09:36:55;0.10;;;0.10;;
19796;SDS011;10058;57.654;12.044;2023-09-08T09:39:20;0.10;;;0.10;;
19796;SDS011;10058;57.654;12.044;2023-09-08T09:41:47;0.08;;;0.08;;
19796;SDS011;10058;57.654;12.044;2023-09-08T09:44:13;0.10;;;0.10;;
19796;SDS011;10058;57.654;12.044;2023-09-08T09:46:42;0.10;;;0.10;;
19796;SDS011;10058;57.654;12.044;2023-09-08T09:49:10;0.05;;;0.05;;
19796;SDS011;10058;57.654;12.044;2023-09-08T09:51:39;0.10;;;0.10;;
19796;SDS011;10058;57.654;12.044;2023-09-08T09:54:07;0.10;;;0.10;;
19796;SDS011;10058;57.654;12.044;2023-09-08T09:56:32;0.10;;;0.10;;
19796;SDS011;10058;57.654;12.044;2023-09-08T09:58:59;0.10;;;0.10;;
19796;SDS011;10058;57.654;12.044;2023-09-08T10:01:27;0.10;;;0.10;;
19796;SDS011;10058;57.654;12.044;2023-09-08T10:03:53;0.10;;;0.10;;
19796;SDS011;10058;57.654;12.044;2023-09-08T10:06:19;0.10;;;0.10;;
19796;SDS011;10058;57.654;12.044;2023-09-08T10:08:45;0.00;;;0.00;;
19796;SDS011;10058;57.654;12.044;2023-09-08T10:11:11;0.10;;;0.10;;
19796;SDS011;10058;57.654;12.044;2023-09-08T10:13:42;0.10;;;0.10;;
19796;SDS011;10058;57.654;12.044;2023-09-08T10:16:13;0.10;;;0.10;;
19796;SDS011;10058;57.654;12.044;2023-09-08T10:18:42;0.08;;;0.08;;
19796;SDS011;10058;57.654;12.044;2023-09-08T10:21:10;453.50;;;409.38;;
19796;SDS011;10058;57.654;12.044;2023-09-08T10:23:49;328.67;;;165.98;;
19796;SDS011;10058;57.654;12.044;2023-09-08T10:26:20;319.75;;;189.50;;
19796;SDS011;10058;57.654;12.044;2023-09-08T10:28:51;321.75;;;194.25;;
19796;SDS011;10058;57.654;12.044;2023-09-08T10:31:20;315.17;;;181.23;;
19796;SDS011;10058;57.654;12.044;2023-09-08T10:33:47;332.10;;;212.93;;
19796;SDS011;10058;57.654;12.044;2023-09-08T10:36:13;318.20;;;150.63;;
19796;SDS011;10058;57.654;12.044;2023-09-08T10:38:38;314.70;;;178.33;;
19796;SDS011;10058;57.654;12.044;2023-09-08T10:46:32;326.00;;;216.90;;
19796;SDS011;10058;57.654;12.044;2023-09-08T10:49:03;327.43;;;219.33;;
19796;SDS011;10058;57.654;12.044;2023-09-08T10:51:29;322.00;;;206.55;;
19796;SDS011;10058;57.654;12.044;2023-09-08T10:53:55;315.07;;;192.67;;
19796;SDS011;10058;57.654;12.044;2023-09-08T10:56:20;321.93;;;203.40;;
19796;SDS011;10058;57.654;12.044;2023-09-08T10:58:49;340.13;;;189.97;;
19796;SDS011;10058;57.654;12.044;2023-09-08T11:01:17;335.80;;;177.35;;
19796;SDS011;10058;57.654;12.044;2023-09-08T11:03:45;368.70;;;169.93;;
19796;SDS011;10058;57.654;12.044;2023-09-08T11:06:15;307.05;;;152.40;;
19796;SDS011;10058;57.654;12.044;2023-09-08T11:08:46;319.55;;;195.93;;
19796;SDS011;10058;57.654;12.044;2023-09-08T11:11:13;328.17;;;219.38;;
19796;SDS011;10058;57.654;12.044;2023-09-08T11:13:39;331.48;;;224.82;;
19796;SDS011;10058;57.654;12.044;2023-09-08T11:16:05;327.17;;;216.47;;
19796;SDS011;10058;57.654;12.044;2023-09-08T11:18:31;326.15;;;210.18;;
19796;SDS011;10058;57.654;12.044;2023-09-08T11:20:59;329.15;;;221.63;;
19796;SDS011;10058;57.654;12.044;2023-09-08T11:23:25;322.90;;;202.82;;
19796;SDS011;10058;57.654;12.044;2023-09-08T11:25:51;322.33;;;193.97;;
19796;SDS011;10058;57.654;12.044;2023-09-08T11:28:17;323.35;;;201.55;;
19796;SDS011;10058;57.654;12.044;2023-09-08T11:30:47;333.90;;;224.35;;
19796;SDS011;10058;57.654;12.044;2023-09-08T11:33:16;327.98;;;219.60;;
19796;SDS011;10058;57.654;12.044;2023-09-08T11:35:46;331.55;;;220.32;;
19796;SDS011;10058;57.654;12.044;2023-09-08T11:38:12;324.88;;;206.13;;
19796;SDS011;10058;57.654;12.044;2023-09-08T11:40:37;325.30;;;191.57;;
19796;SDS011;10058;57.654;12.044;2023-09-08T11:43:03;310.67;;;161.93;;
19796;SDS011;10058;57.654;12.044;2023-09-08T11:45:30;296.52;;;124.35;;
19796;SDS011;10058;57.654;12.044;2023-09-08T11:47:58;292.30;;;108.57;;
19796;SDS011;10058;57.654;12.044;2023-09-08T11:50:24;296.13;;;121.20;;
19796;SDS011;10058;57.654;12.044;2023-09-08T11:52:53;298.43;;;118.00;;
19796;SDS011;10058;57.654;12.044;2023-09-08T11:55:19;292.67;;;116.70;;
19796;SDS011;10058;57.654;12.044;2023-09-08T11:57:48;288.23;;;101.22;;
19796;SDS011;10058;57.654;12.044;2023-09-08T12:00:16;291.58;;;97.90;;
19796;SDS011;10058;57.654;12.044;2023-09-08T12:02:43;284.02;;;87.18;;
19796;SDS011;10058;57.654;12.044;2023-09-08T12:05:13;297.38;;;119.30;;
19796;SDS011;10058;57.654;12.044;2023-09-08T12:07:49;292.20;;;108.93;;
19796;SDS011;10058;57.654;12.044;2023-09-08T12:10:18;286.85;;;91.53;;
19796;SDS011;10058;57.654;12.044;2023-09-08T12:12:47;286.80;;;92.07;;
19796;SDS011;10058;57.654;12.044;2023-09-08T12:17:58;285.10;;;86.75;;
19796;SDS011;10058;57.654;12.044;2023-09-08T12:20:25;285.53;;;87.20;;
19796;SDS011;10058;57.654;12.044;2023-09-08T12:22:51;288.27;;;92.13;;
19796;SDS011;10058;57.654;12.044;2023-09-08T12:25:16;289.40;;;94.10;;
19796;SDS011;10058;57.654;12.044;2023-09-08T12:27:42;284.38;;;90.32;;
19796;SDS011;10058;57.654;12.044;2023-09-08T12:30:08;286.13;;;84.53;;
19796;SDS011;10058;57.654;12.044;2023-09-08T12:32:34;283.63;;;85.13;;
19796;SDS011;10058;57.654;12.044;2023-09-08T12:35:02;285.03;;;86.43;;
19796;SDS011;10058;57.654;12.044;2023-09-08T12:37:28;286.63;;;88.95;;
19796;SDS011;10058;57.654;12.044;2023-09-08T12:39:55;291.55;;;88.82;;
19796;SDS011;10058;57.654;12.044;2023-09-08T12:42:20;298.03;;;93.07;;
19796;SDS011;10058;57.654;12.044;2023-09-08T12:44:47;289.80;;;103.43;;
19796;SDS011;10058;57.654;12.044;2023-09-08T12:47:12;288.38;;;95.80;;
19796;SDS011;10058;57.654;12.044;2023-09-08T12:49:38;287.00;;;89.20;;
19796;SDS011;10058;57.654;12.044;2023-09-08T12:52:04;287.10;;;98.72;;
19796;SDS011;10058;57.654;12.044;2023-09-08T12:54:30;286.88;;;90.65;;
19796;SDS011;10058;57.654;12.044;2023-09-08T12:56:55;286.07;;;87.93;;
19796;SDS011;10058;57.654;12.044;2023-09-08T12:59:20;285.80;;;87.47;;
19796;SDS011;10058;57.654;12.044;2023-09-08T13:01:45;289.87;;;90.77;;
19796;SDS011;10058;57.654;12.044;2023-09-08T13:04:11;284.60;;;87.50;;
19796;SDS011;10058;57.654;12.044;2023-09-08T13:06:36;286.47;;;87.57;;
19796;SDS011;10058;57.654;12.044;2023-09-08T13:09:01;294.33;;;91.73;;
19796;SDS011;10058;57.654;12.044;2023-09-08T13:11:27;281.80;;;82.83;;
19796;SDS011;10058;57.654;12.044;2023-09-08T13:13:53;284.10;;;82.90;;
19796;SDS011;10058;57.654;12.044;2023-09-08T13:16:18;289.03;;;85.53;;
19796;SDS011;10058;57.654;12.044;2023-09-08T13:18:43;287.77;;;89.77;;
19796;SDS011;10058;57.654;12.044;2023-09-08T13:21:10;287.17;;;88.32;;
19796;SDS011;10058;57.654;12.044;2023-09-08T13:23:35;283.63;;;85.57;;
19796;SDS011;10058;57.654;12.044;2023-09-08T13:26:01;286.83;;;87.97;;
19796;SDS011;10058;57.654;12.044;2023-09-08T13:28:26;290.30;;;95.20;;
19796;SDS011;10058;57.654;12.044;2023-09-08T13:30:51;292.43;;;93.00;;
19796;SDS011;10058;57.654;12.044;2023-09-08T13:33:17;297.05;;;104.55;;
19796;SDS011;10058;57.654;12.044;2023-09-08T13:35:42;288.17;;;91.17;;
19796;SDS011;10058;57.654;12.044;2023-09-08T13:38:07;293.67;;;92.60;;
19796;SDS011;10058;57.654;12.044;2023-09-08T13:40:33;292.73;;;91.97;;
19796;SDS011;10058;57.654;12.044;2023-09-08T13:42:58;291.23;;;101.60;;
19796;SDS011;10058;57.654;12.044;2023-09-08T13:45:23;298.43;;;96.63;;
19796;SDS011;10058;57.654;12.044;2023-09-08T13:47:49;295.50;;;99.53;;
19796;SDS011;10058;57.654;12.044;2023-09-08T13:50:14;297.73;;;99.33;;
19796;SDS011;10058;57.654;12.044;2023-09-08T13:52:39;292.93;;;97.87;;
19796;SDS011;10058;57.654;12.044;2023-09-08T13:55:05;296.40;;;94.83;;
19796;SDS011;10058;57.654;12.044;2023-09-08T13:57:31;288.77;;;89.68;;
19796;SDS011;10058;57.654;12.044;2023-09-08T13:59:56;288.20;;;87.60;;
19796;SDS011;10058;57.654;12.044;2023-09-08T14:02:21;287.23;;;88.90;;
19796;SDS011;10058;57.654;12.044;2023-09-08T14:04:47;290.25;;;89.82;;
19796;SDS011;10058;57.654;12.044;2023-09-08T14:07:12;288.67;;;90.70;;
19796;SDS011;10058;57.654;12.044;2023-09-08T14:09:38;289.63;;;90.47;;
19796;SDS011;10058;57.654;12.044;2023-09-08T14:12:04;290.23;;;94.40;;
19796;SDS011;10058;57.654;12.044;2023-09-08T14:14:30;287.37;;;91.70;;
19796;SDS011;10058;57.654;12.044;2023-09-08T14:16:55;292.80;;;93.70;;
19796;SDS011;10058;57.654;12.044;2023-09-08T14:19:20;291.90;;;91.60;;
19796;SDS011;10058;57.654;12.044;2023-09-08T14:21:46;294.00;;;98.33;;
19796;SDS011;10058;57.654;12.044;2023-09-08T14:24:11;301.87;;;96.90;;
19796;SDS011;10058;57.654;12.044;2023-09-08T14:26:36;288.40;;;94.63;;
19796;SDS011;10058;57.654;12.044;2023-09-08T14:29:02;299.30;;;97.65;;